sensor_id;sensor_type;location;lat;lon;timestamp;temperature;humidity
3310;DHT22;1667;53.238;10.394;2022-07-18T00:01:14;19.90;73.70
3310;DHT22;1667;53.238;10.394;2022-07-18T00:06:12;19.90;74.20
3310;DHT22;1667;53.238;10.394;2022-07-18T00:11:11;19.80;74.10
3310;DHT22;1667;53.238;10.394;2022-07-18T00:16:10;19.70;74.10
3310;DHT22;1667;53.238;10.394;2022-07-18T00:21:08;19.70;74.40
3310;DHT22;1667;53.238;10.394;2022-07-18T00:26:07;19.60;74.60
3310;DHT22;1667;53.238;10.394;2022-07-18T00:31:07;19.60;74.50
3310;DHT22;1667;53.238;10.394;2022-07-18T00:36:06;19.50;74.50
3310;DHT22;1667;53.238;10.394;2022-07-18T00:41:04;19.50;74.70
3310;DHT22;1667;53.238;10.394;2022-07-18T00:46:04;19.40;75.00
3310;DHT22;1667;53.238;10.394;2022-07-18T00:51:04;19.40;74.90
3310;DHT22;1667;53.238;10.394;2022-07-18T00:56:04;19.30;75.10
3310;DHT22;1667;53.238;10.394;2022-07-18T01:01:02;19.20;75.00
3310;DHT22;1667;53.238;10.394;2022-07-18T01:06:20;19.10;75.20
3310;DHT22;1667;53.238;10.394;2022-07-18T01:11:18;19.10;76.40
3310;DHT22;1667;53.238;10.394;2022-07-18T01:16:18;19.10;75.40
3310;DHT22;1667;53.238;10.394;2022-07-18T01:21:18;19.00;75.20
3310;DHT22;1667;53.238;10.394;2022-07-18T01:26:17;19.00;75.60
3310;DHT22;1667;53.238;10.394;2022-07-18T01:31:16;18.90;75.80
3310;DHT22;1667;53.238;10.394;2022-07-18T01:36:14;18.80;76.70
3310;DHT22;1667;53.238;10.394;2022-07-18T01:41:14;18.80;76.60
3310;DHT22;1667;53.238;10.394;2022-07-18T01:46:12;18.80;76.30
3310;DHT22;1667;53.238;10.394;2022-07-18T01:51:11;18.70;76.50
3310;DHT22;1667;53.238;10.394;2022-07-18T01:56:12;18.70;76.70
3310;DHT22;1667;53.238;10.394;2022-07-18T02:01:11;18.60;76.80
3310;DHT22;1667;53.238;10.394;2022-07-18T02:06:10;18.60;76.80
3310;DHT22;1667;53.238;10.394;2022-07-18T02:11:08;18.50;76.50
3310;DHT22;1667;53.238;10.394;2022-07-18T02:16:07;18.50;76.70
3310;DHT22;1667;53.238;10.394;2022-07-18T02:21:06;18.50;76.60
3310;DHT22;1667;53.238;10.394;2022-07-18T02:26:05;18.40;76.70
3310;DHT22;1667;53.238;10.394;2022-07-18T02:31:07;18.40;77.00
3310;DHT22;1667;53.238;10.394;2022-07-18T02:36:07;18.30;77.20
3310;DHT22;1667;53.238;10.394;2022-07-18T02:41:05;18.30;77.30
3310;DHT22;1667;53.238;10.394;2022-07-18T02:46:04;18.20;77.00
3310;DHT22;1667;53.238;10.394;2022-07-18T02:51:03;18.20;76.90
3310;DHT22;1667;53.238;10.394;2022-07-18T02:56:03;18.10;77.30
3310;DHT22;1667;53.238;10.394;2022-07-18T03:01:01;18.10;77.00
3310;DHT22;1667;53.238;10.394;2022-07-18T03:05:59;18.00;77.20
3310;DHT22;1667;53.238;10.394;2022-07-18T03:10:58;18.00;77.20
3310;DHT22;1667;53.238;10.394;2022-07-18T03:15:57;18.00;77.10
3310;DHT22;1667;53.238;10.394;2022-07-18T03:20:56;17.90;77.40
3310;DHT22;1667;53.238;10.394;2022-07-18T03:25:54;17.90;77.50
3310;DHT22;1667;53.238;10.394;2022-07-18T03:30:52;17.90;77.80
3310;DHT22;1667;53.238;10.394;2022-07-18T03:35:52;17.90;78.00
3310;DHT22;1667;53.238;10.394;2022-07-18T03:40:50;17.80;78.20
3310;DHT22;1667;53.238;10.394;2022-07-18T03:45:48;17.80;78.20
3310;DHT22;1667;53.238;10.394;2022-07-18T03:50:47;17.90;78.40
3310;DHT22;1667;53.238;10.394;2022-07-18T03:55:46;17.80;78.40
3310;DHT22;1667;53.238;10.394;2022-07-18T04:00:44;17.80;78.60
3310;DHT22;1667;53.238;10.394;2022-07-18T04:05:43;17.80;78.60
3310;DHT22;1667;53.238;10.394;2022-07-18T04:10:41;17.80;78.80
3310;DHT22;1667;53.238;10.394;2022-07-18T04:15:42;17.80;79.00
3310;DHT22;1667;53.238;10.394;2022-07-18T04:20:40;17.80;79.30
3310;DHT22;1667;53.238;10.394;2022-07-18T04:25:40;17.70;79.40
3310;DHT22;1667;53.238;10.394;2022-07-18T04:30:42;17.70;79.90
3310;DHT22;1667;53.238;10.394;2022-07-18T04:35:40;17.80;80.50
3310;DHT22;1667;53.238;10.394;2022-07-18T04:40:38;17.80;80.40
3310;DHT22;1667;53.238;10.394;2022-07-18T04:45:37;17.80;80.30
3310;DHT22;1667;53.238;10.394;2022-07-18T04:50:37;17.80;80.30
3310;DHT22;1667;53.238;10.394;2022-07-18T04:55:35;17.80;80.20
3310;DHT22;1667;53.238;10.394;2022-07-18T05:00:33;17.90;80.40
3310;DHT22;1667;53.238;10.394;2022-07-18T05:05:31;17.90;80.30
3310;DHT22;1667;53.238;10.394;2022-07-18T05:10:34;18.00;80.50
3310;DHT22;1667;53.238;10.394;2022-07-18T05:15:32;18.00;80.40
3310;DHT22;1667;53.238;10.394;2022-07-18T05:20:31;18.10;80.60
3310;DHT22;1667;53.238;10.394;2022-07-18T05:25:29;18.20;80.90
3310;DHT22;1667;53.238;10.394;2022-07-18T05:30:29;18.30;80.80
3310;DHT22;1667;53.238;10.394;2022-07-18T05:35:27;18.40;81.40
3310;DHT22;1667;53.238;10.394;2022-07-18T05:40:25;18.50;81.20
3310;DHT22;1667;53.238;10.394;2022-07-18T05:45:24;18.70;81.80
3310;DHT22;1667;53.238;10.394;2022-07-18T05:50:24;18.90;81.30
3310;DHT22;1667;53.238;10.394;2022-07-18T05:55:23;19.00;81.30
3310;DHT22;1667;53.238;10.394;2022-07-18T06:00:22;19.10;81.40
3310;DHT22;1667;53.238;10.394;2022-07-18T06:05:20;19.30;82.10
3310;DHT22;1667;53.238;10.394;2022-07-18T06:10:25;19.40;81.00
3310;DHT22;1667;53.238;10.394;2022-07-18T06:15:24;19.50;81.60
3310;DHT22;1667;53.238;10.394;2022-07-18T06:20:22;19.70;82.60
3310;DHT22;1667;53.238;10.394;2022-07-18T06:25:20;19.80;81.90
3310;DHT22;1667;53.238;10.394;2022-07-18T06:30:20;19.90;81.40
3310;DHT22;1667;53.238;10.394;2022-07-18T06:35:20;20.00;80.90
3310;DHT22;1667;53.238;10.394;2022-07-18T06:40:18;20.10;81.10
3310;DHT22;1667;53.238;10.394;2022-07-18T06:45:16;20.20;80.70
3310;DHT22;1667;53.238;10.394;2022-07-18T06:50:17;20.30;80.60
3310;DHT22;1667;53.238;10.394;2022-07-18T06:55:15;20.50;82.00
3310;DHT22;1667;53.238;10.394;2022-07-18T07:00:14;20.70;81.20
3310;DHT22;1667;53.238;10.394;2022-07-18T07:05:13;21.00;81.10
3310;DHT22;1667;53.238;10.394;2022-07-18T07:10:14;21.20;81.30
3310;DHT22;1667;53.238;10.394;2022-07-18T07:15:13;21.30;81.80
3310;DHT22;1667;53.238;10.394;2022-07-18T07:20:12;21.40;81.90
3310;DHT22;1667;53.238;10.394;2022-07-18T07:25:12;21.60;81.00
3310;DHT22;1667;53.238;10.394;2022-07-18T07:30:12;21.80;81.40
3310;DHT22;1667;53.238;10.394;2022-07-18T07:35:12;22.00;81.20
3310;DHT22;1667;53.238;10.394;2022-07-18T07:40:12;22.20;80.10
3310;DHT22;1667;53.238;10.394;2022-07-18T07:45:12;22.50;79.50
3310;DHT22;1667;53.238;10.394;2022-07-18T07:50:11;22.70;79.50
3310;DHT22;1667;53.238;10.394;2022-07-18T07:55:10;22.90;79.60
3310;DHT22;1667;53.238;10.394;2022-07-18T08:00:10;23.00;79.00
3310;DHT22;1667;53.238;10.394;2022-07-18T08:05:08;23.30;77.60
3310;DHT22;1667;53.238;10.394;2022-07-18T08:10:07;23.60;77.40
3310;DHT22;1667;53.238;10.394;2022-07-18T08:15:07;23.70;77.40
3310;DHT22;1667;53.238;10.394;2022-07-18T08:20:08;23.90;77.10
3310;DHT22;1667;53.238;10.394;2022-07-18T08:25:08;24.10;75.70
3310;DHT22;1667;53.238;10.394;2022-07-18T08:30:07;24.40;76.80
3310;DHT22;1667;53.238;10.394;2022-07-18T08:35:08;24.70;77.00
3310;DHT22;1667;53.238;10.394;2022-07-18T08:40:07;24.90;76.30
3310;DHT22;1667;53.238;10.394;2022-07-18T08:45:07;25.10;73.00
3310;DHT22;1667;53.238;10.394;2022-07-18T08:50:08;25.30;74.20
3310;DHT22;1667;53.238;10.394;2022-07-18T08:55:08;25.40;74.90
3310;DHT22;1667;53.238;10.394;2022-07-18T09:00:21;25.60;75.40
3310;DHT22;1667;53.238;10.394;2022-07-18T09:05:21;25.80;74.10
3310;DHT22;1667;53.238;10.394;2022-07-18T09:10:41;26.00;71.50
3310;DHT22;1667;53.238;10.394;2022-07-18T09:15:56;26.40;73.20
3310;DHT22;1667;53.238;10.394;2022-07-18T09:21:00;26.60;72.90
3310;DHT22;1667;53.238;10.394;2022-07-18T09:26:00;26.90;71.80
3310;DHT22;1667;53.238;10.394;2022-07-18T09:31:00;27.00;71.10
3310;DHT22;1667;53.238;10.394;2022-07-18T09:36:15;27.30;71.50
3310;DHT22;1667;53.238;10.394;2022-07-18T09:41:14;27.60;70.90
3310;DHT22;1667;53.238;10.394;2022-07-18T09:46:12;27.80;69.50
3310;DHT22;1667;53.238;10.394;2022-07-18T09:51:17;28.00;70.00
3310;DHT22;1667;53.238;10.394;2022-07-18T09:56:23;28.10;69.00
3310;DHT22;1667;53.238;10.394;2022-07-18T10:01:22;28.10;68.20
3310;DHT22;1667;53.238;10.394;2022-07-18T10:06:22;28.20;68.20
3310;DHT22;1667;53.238;10.394;2022-07-18T10:11:21;28.50;68.70
3310;DHT22;1667;53.238;10.394;2022-07-18T10:16:20;28.80;68.40
3310;DHT22;1667;53.238;10.394;2022-07-18T10:21:21;29.10;67.70
3310;DHT22;1667;53.238;10.394;2022-07-18T10:26:21;29.30;67.50
3310;DHT22;1667;53.238;10.394;2022-07-18T10:31:21;29.40;66.30
3310;DHT22;1667;53.238;10.394;2022-07-18T10:36:22;29.60;66.50
3310;DHT22;1667;53.238;10.394;2022-07-18T10:41:21;29.80;65.20
3310;DHT22;1667;53.238;10.394;2022-07-18T10:46:19;30.00;64.70
3310;DHT22;1667;53.238;10.394;2022-07-18T10:51:18;30.10;63.20
3310;DHT22;1667;53.238;10.394;2022-07-18T10:56:18;30.40;63.10
3310;DHT22;1667;53.238;10.394;2022-07-18T11:01:18;30.40;63.10
3310;DHT22;1667;53.238;10.394;2022-07-18T11:06:17;30.50;63.40
3310;DHT22;1667;53.238;10.394;2022-07-18T11:11:15;30.70;63.60
3310;DHT22;1667;53.238;10.394;2022-07-18T11:16:16;30.90;59.60
3310;DHT22;1667;53.238;10.394;2022-07-18T11:21:16;31.30;61.00
3310;DHT22;1667;53.238;10.394;2022-07-18T11:26:19;31.40;62.10
3310;DHT22;1667;53.238;10.394;2022-07-18T11:31:21;31.60;60.90
3310;DHT22;1667;53.238;10.394;2022-07-18T11:36:21;31.60;59.60
3310;DHT22;1667;53.238;10.394;2022-07-18T11:41:21;31.70;60.40
3310;DHT22;1667;53.238;10.394;2022-07-18T11:46:22;31.70;59.30
3310;DHT22;1667;53.238;10.394;2022-07-18T11:51:21;31.70;59.40
3310;DHT22;1667;53.238;10.394;2022-07-18T11:56:21;31.80;59.30
3310;DHT22;1667;53.238;10.394;2022-07-18T12:01:21;31.90;59.00
3310;DHT22;1667;53.238;10.394;2022-07-18T12:06:21;32.00;59.40
3310;DHT22;1667;53.238;10.394;2022-07-18T12:11:27;31.90;59.10
3310;DHT22;1667;53.238;10.394;2022-07-18T12:16:35;31.90;59.80
3310;DHT22;1667;53.238;10.394;2022-07-18T12:21:42;31.90;58.30
3310;DHT22;1667;53.238;10.394;2022-07-18T12:26:40;31.90;58.60
3310;DHT22;1667;53.238;10.394;2022-07-18T12:31:46;31.90;58.20
3310;DHT22;1667;53.238;10.394;2022-07-18T12:36:51;32.00;57.80
3310;DHT22;1667;53.238;10.394;2022-07-18T12:41:57;32.10;58.10
3310;DHT22;1667;53.238;10.394;2022-07-18T12:46:57;32.30;57.80
3310;DHT22;1667;53.238;10.394;2022-07-18T12:51:55;32.40;57.00
3310;DHT22;1667;53.238;10.394;2022-07-18T12:56:53;32.50;57.20
3310;DHT22;1667;53.238;10.394;2022-07-18T13:01:51;32.60;58.30
3310;DHT22;1667;53.238;10.394;2022-07-18T13:06:51;32.70;56.90
3310;DHT22;1667;53.238;10.394;2022-07-18T13:11:50;32.90;56.40
3310;DHT22;1667;53.238;10.394;2022-07-18T13:16:48;32.90;56.60
3310;DHT22;1667;53.238;10.394;2022-07-18T13:21:48;33.20;57.10
3310;DHT22;1667;53.238;10.394;2022-07-18T13:26:47;33.30;55.80
3310;DHT22;1667;53.238;10.394;2022-07-18T13:31:46;33.50;55.70
3310;DHT22;1667;53.238;10.394;2022-07-18T13:36:45;33.60;56.20
3310;DHT22;1667;53.238;10.394;2022-07-18T13:41:44;33.70;56.30
3310;DHT22;1667;53.238;10.394;2022-07-18T13:46:44;33.80;57.00
3310;DHT22;1667;53.238;10.394;2022-07-18T13:51:42;34.10;55.10
3310;DHT22;1667;53.238;10.394;2022-07-18T13:56:40;34.30;55.00
3310;DHT22;1667;53.238;10.394;2022-07-18T14:01:39;34.40;54.20
3310;DHT22;1667;53.238;10.394;2022-07-18T14:06:39;34.50;54.90
3310;DHT22;1667;53.238;10.394;2022-07-18T14:11:37;34.50;53.70
3310;DHT22;1667;53.238;10.394;2022-07-18T14:16:35;34.40;53.30
3310;DHT22;1667;53.238;10.394;2022-07-18T14:21:35;34.30;52.50
3310;DHT22;1667;53.238;10.394;2022-07-18T14:26:34;34.20;52.80
3310;DHT22;1667;53.238;10.394;2022-07-18T14:31:32;34.00;52.70
3310;DHT22;1667;53.238;10.394;2022-07-18T14:36:31;33.90;51.60
3310;DHT22;1667;53.238;10.394;2022-07-18T14:41:30;33.80;52.40
3310;DHT22;1667;53.238;10.394;2022-07-18T14:46:30;33.60;52.70
3310;DHT22;1667;53.238;10.394;2022-07-18T14:51:28;33.50;52.80
3310;DHT22;1667;53.238;10.394;2022-07-18T14:56:27;33.40;53.20
3310;DHT22;1667;53.238;10.394;2022-07-18T15:01:26;33.30;53.40
3310;DHT22;1667;53.238;10.394;2022-07-18T15:06:26;33.30;52.60
3310;DHT22;1667;53.238;10.394;2022-07-18T15:11:24;33.30;51.80
3310;DHT22;1667;53.238;10.394;2022-07-18T15:16:23;33.40;52.40
3310;DHT22;1667;53.238;10.394;2022-07-18T15:21:21;33.50;52.90
3310;DHT22;1667;53.238;10.394;2022-07-18T15:26:20;33.50;52.20
3310;DHT22;1667;53.238;10.394;2022-07-18T15:31:19;33.60;52.70
3310;DHT22;1667;53.238;10.394;2022-07-18T15:36:17;33.60;51.80
3310;DHT22;1667;53.238;10.394;2022-07-18T15:41:16;33.60;52.10
3310;DHT22;1667;53.238;10.394;2022-07-18T15:46:18;33.50;51.20
3310;DHT22;1667;53.238;10.394;2022-07-18T15:51:16;33.50;52.20
3310;DHT22;1667;53.238;10.394;2022-07-18T15:56:15;33.70;50.70
3310;DHT22;1667;53.238;10.394;2022-07-18T16:01:14;33.70;49.40
3310;DHT22;1667;53.238;10.394;2022-07-18T16:06:14;33.70;48.90
3310;DHT22;1667;53.238;10.394;2022-07-18T16:11:12;33.60;51.20
3310;DHT22;1667;53.238;10.394;2022-07-18T16:16:10;33.60;50.60
3310;DHT22;1667;53.238;10.394;2022-07-18T16:21:09;33.50;50.30
3310;DHT22;1667;53.238;10.394;2022-07-18T16:26:08;33.50;51.20
3310;DHT22;1667;53.238;10.394;2022-07-18T16:31:07;33.40;51.10
3310;DHT22;1667;53.238;10.394;2022-07-18T16:36:06;33.40;50.60
3310;DHT22;1667;53.238;10.394;2022-07-18T16:41:05;33.30;51.60
3310;DHT22;1667;53.238;10.394;2022-07-18T16:46:06;33.30;51.80
3310;DHT22;1667;53.238;10.394;2022-07-18T16:51:05;32.80;49.00
3310;DHT22;1667;53.238;10.394;2022-07-18T16:56:05;32.70;50.30
3310;DHT22;1667;53.238;10.394;2022-07-18T17:01:06;32.60;49.80
3310;DHT22;1667;53.238;10.394;2022-07-18T17:06:05;32.40;49.80
3310;DHT22;1667;53.238;10.394;2022-07-18T17:11:04;32.10;49.30
3310;DHT22;1667;53.238;10.394;2022-07-18T17:16:03;31.80;49.00
3310;DHT22;1667;53.238;10.394;2022-07-18T17:21:03;31.60;49.90
3310;DHT22;1667;53.238;10.394;2022-07-18T17:26:02;31.50;50.10
3310;DHT22;1667;53.238;10.394;2022-07-18T17:31:01;31.40;50.40
3310;DHT22;1667;53.238;10.394;2022-07-18T17:36:03;31.30;50.80
3310;DHT22;1667;53.238;10.394;2022-07-18T17:41:04;31.20;50.70
3310;DHT22;1667;53.238;10.394;2022-07-18T17:46:06;31.10;51.70
3310;DHT22;1667;53.238;10.394;2022-07-18T17:51:07;31.10;52.10
3310;DHT22;1667;53.238;10.394;2022-07-18T17:56:06;30.90;51.80
3310;DHT22;1667;53.238;10.394;2022-07-18T18:01:05;30.60;51.60
3310;DHT22;1667;53.238;10.394;2022-07-18T18:06:06;30.40;52.30
3310;DHT22;1667;53.238;10.394;2022-07-18T18:11:05;30.40;53.00
3310;DHT22;1667;53.238;10.394;2022-07-18T18:16:03;30.30;53.40
3310;DHT22;1667;53.238;10.394;2022-07-18T18:21:03;30.20;52.90
3310;DHT22;1667;53.238;10.394;2022-07-18T18:26:03;30.20;53.90
3310;DHT22;1667;53.238;10.394;2022-07-18T18:31:02;30.10;54.00
3310;DHT22;1667;53.238;10.394;2022-07-18T18:36:00;30.10;54.30
3310;DHT22;1667;53.238;10.394;2022-07-18T18:40:59;29.90;54.40
3310;DHT22;1667;53.238;10.394;2022-07-18T18:45:58;29.80;54.60
3310;DHT22;1667;53.238;10.394;2022-07-18T18:50:57;29.70;54.60
3310;DHT22;1667;53.238;10.394;2022-07-18T18:55:55;29.60;55.00
3310;DHT22;1667;53.238;10.394;2022-07-18T19:00:53;29.50;55.10
3310;DHT22;1667;53.238;10.394;2022-07-18T19:05:53;29.40;55.40
3310;DHT22;1667;53.238;10.394;2022-07-18T19:10:51;29.30;55.90
3310;DHT22;1667;53.238;10.394;2022-07-18T19:15:50;29.20;55.90
3310;DHT22;1667;53.238;10.394;2022-07-18T19:20:49;29.10;56.10
3310;DHT22;1667;53.238;10.394;2022-07-18T19:25:48;29.00;56.50
3310;DHT22;1667;53.238;10.394;2022-07-18T19:30:47;28.90;56.60
3310;DHT22;1667;53.238;10.394;2022-07-18T19:35:45;28.70;56.60
3310;DHT22;1667;53.238;10.394;2022-07-18T19:40:43;28.60;57.00
3310;DHT22;1667;53.238;10.394;2022-07-18T19:45:43;28.50;57.40
3310;DHT22;1667;53.238;10.394;2022-07-18T19:50:42;28.30;57.30
3310;DHT22;1667;53.238;10.394;2022-07-18T19:55:41;28.20;57.60
3310;DHT22;1667;53.238;10.394;2022-07-18T20:00:39;28.10;57.80
3310;DHT22;1667;53.238;10.394;2022-07-18T20:05:39;27.90;57.80
3310;DHT22;1667;53.238;10.394;2022-07-18T20:10:37;27.80;58.00
3310;DHT22;1667;53.238;10.394;2022-07-18T20:15:36;27.60;58.20
3310;DHT22;1667;53.238;10.394;2022-07-18T20:20:34;27.50;58.30
3310;DHT22;1667;53.238;10.394;2022-07-18T20:25:34;27.40;58.50
3310;DHT22;1667;53.238;10.394;2022-07-18T20:30:33;27.20;58.60
3310;DHT22;1667;53.238;10.394;2022-07-18T20:35:32;27.00;58.80
3310;DHT22;1667;53.238;10.394;2022-07-18T20:40:31;26.90;59.20
3310;DHT22;1667;53.238;10.394;2022-07-18T20:45:31;26.80;59.70
3310;DHT22;1667;53.238;10.394;2022-07-18T20:50:30;26.70;59.60
3310;DHT22;1667;53.238;10.394;2022-07-18T20:55:28;26.50;59.50
3310;DHT22;1667;53.238;10.394;2022-07-18T21:00:26;26.40;60.10
3310;DHT22;1667;53.238;10.394;2022-07-18T21:05:26;26.40;60.90
3310;DHT22;1667;53.238;10.394;2022-07-18T21:10:24;26.20;61.40
3310;DHT22;1667;53.238;10.394;2022-07-18T21:15:23;26.00;61.60
3310;DHT22;1667;53.238;10.394;2022-07-18T21:20:23;25.90;61.80
3310;DHT22;1667;53.238;10.394;2022-07-18T21:25:24;25.80;61.90
3310;DHT22;1667;53.238;10.394;2022-07-18T21:30:23;25.70;62.20
3310;DHT22;1667;53.238;10.394;2022-07-18T21:35:21;25.60;62.20
3310;DHT22;1667;53.238;10.394;2022-07-18T21:40:20;25.50;62.60
3310;DHT22;1667;53.238;10.394;2022-07-18T21:45:20;25.40;63.40
3310;DHT22;1667;53.238;10.394;2022-07-18T21:50:18;25.30;63.90
3310;DHT22;1667;53.238;10.394;2022-07-18T21:55:16;25.20;64.20
3310;DHT22;1667;53.238;10.394;2022-07-18T22:00:15;25.10;64.10
3310;DHT22;1667;53.238;10.394;2022-07-18T22:05:14;25.00;64.20
3310;DHT22;1667;53.238;10.394;2022-07-18T22:10:13;24.80;65.00
3310;DHT22;1667;53.238;10.394;2022-07-18T22:15:13;24.70;65.50
3310;DHT22;1667;53.238;10.394;2022-07-18T22:20:15;24.60;65.40
3310;DHT22;1667;53.238;10.394;2022-07-18T22:25:13;24.60;65.30
3310;DHT22;1667;53.238;10.394;2022-07-18T22:30:12;24.50;65.40
3310;DHT22;1667;53.238;10.394;2022-07-18T22:35:11;24.50;66.00
3310;DHT22;1667;53.238;10.394;2022-07-18T22:40:13;24.40;65.80
3310;DHT22;1667;53.238;10.394;2022-07-18T22:45:12;24.30;65.70
3310;DHT22;1667;53.238;10.394;2022-07-18T22:50:10;24.10;65.80
3310;DHT22;1667;53.238;10.394;2022-07-18T22:55:09;24.10;66.30
3310;DHT22;1667;53.238;10.394;2022-07-18T23:00:10;24.00;66.50
3310;DHT22;1667;53.238;10.394;2022-07-18T23:05:10;23.90;66.90
3310;DHT22;1667;53.238;10.394;2022-07-18T23:10:23;23.80;67.20
3310;DHT22;1667;53.238;10.394;2022-07-18T23:15:23;23.70;67.20
3310;DHT22;1667;53.238;10.394;2022-07-18T23:20:22;23.60;68.50
3310;DHT22;1667;53.238;10.394;2022-07-18T23:25:20;23.50;67.80
3310;DHT22;1667;53.238;10.394;2022-07-18T23:30:19;23.40;67.90
3310;DHT22;1667;53.238;10.394;2022-07-18T23:35:19;23.30;68.40
3310;DHT22;1667;53.238;10.394;2022-07-18T23:40:18;23.20;68.40
3310;DHT22;1667;53.238;10.394;2022-07-18T23:45:16;23.10;68.60
3310;DHT22;1667;53.238;10.394;2022-07-18T23:50:15;23.10;69.20
3310;DHT22;1667;53.238;10.394;2022-07-18T23:55:16;23.00;69.20
